Time;durP1;ratioP1;P1;durP2;ratioP2;P2;SDS_P1;SDS_P2;PMS_P1;PMS_P2;Temp;Humidity;BMP_temperature;BMP_pressure;BME280_temperature;BME280_humidity;BME280_pressure;Samples;Min_cycle;Max_cycle;Signal;HPM_P1;HPM_P2
2023/11/06 00:02:17;;;;;;;8.07;1.88;;;10.30;99.90;;;;;;5043064;28;20576;-51
2023/11/06 00:04:43;;;;;;;2.53;1.20;;;10.30;99.90;;;;;;5034616;28;20392;-52
2023/11/06 00:07:09;;;;;;;5.00;1.33;;;10.30;99.90;;;;;;5052733;28;20033;-52
2023/11/06 00:09:37;;;;;;;9.05;2.28;;;10.20;99.90;;;;;;5052851;28;20038;-53
2023/11/06 00:12:03;;;;;;;7.72;1.85;;;10.20;99.90;;;;;;5045542;28;20068;-52
2023/11/06 00:14:29;;;;;;;14.45;2.15;;;10.20;99.90;;;;;;5046728;28;20504;-52
2023/11/06 00:16:55;;;;;;;2.88;1.35;;;10.20;99.90;;;;;;5052582;28;20082;-53
2023/11/06 00:19:20;;;;;;;6.57;1.63;;;10.20;99.90;;;;;;5052055;28;20216;-52
2023/11/06 00:21:46;;;;;;;3.92;1.10;;;10.20;99.90;;;;;;5052415;28;20371;-52
2023/11/06 00:24:12;;;;;;;5.10;1.58;;;10.20;99.90;;;;;;5052508;28;20167;-52
2023/11/06 00:26:38;;;;;;;5.53;1.23;;;10.20;99.90;;;;;;5036866;28;20504;-52
2023/11/06 00:29:03;;;;;;;7.57;0.82;;;10.20;99.90;;;;;;5040105;28;20029;-52
2023/11/06 00:31:37;;;;;;;8.38;1.45;;;10.20;99.90;;;;;;5051745;28;20025;-54
2023/11/06 00:34:03;;;;;;;6.03;1.73;;;10.20;99.90;;;;;;5047133;28;20025;-51
2023/11/06 00:36:29;;;;;;;10.23;1.75;;;10.20;99.90;;;;;;5040714;28;20025;-52
2023/11/06 00:38:54;;;;;;;14.15;1.10;;;10.20;99.90;;;;;;5052818;28;20017;-49
2023/11/06 00:41:20;;;;;;;16.13;1.90;;;10.20;99.90;;;;;;5040474;28;20035;-35
2023/11/06 00:43:46;;;;;;;6.20;1.10;;;10.20;99.90;;;;;;5031786;28;20557;-35
2023/11/06 00:46:11;;;;;;;11.52;1.35;;;10.10;99.90;;;;;;5049201;28;20072;-34
2023/11/06 00:48:37;;;;;;;11.15;1.63;;;10.20;99.90;;;;;;5051772;28;20032;-35
2023/11/06 00:51:03;;;;;;;5.57;0.93;;;10.20;99.90;;;;;;5051544;28;20032;-35
2023/11/06 00:53:32;;;;;;;4.22;1.40;;;10.20;99.90;;;;;;5052407;28;20029;-36
2023/11/06 00:55:58;;;;;;;7.10;0.85;;;10.20;99.90;;;;;;5052204;28;20032;-36
2023/11/06 00:58:24;;;;;;;2.83;0.82;;;10.20;99.90;;;;;;5037894;28;20025;-35
2023/11/06 01:00:50;;;;;;;2.47;0.95;;;10.20;99.90;;;;;;5032533;28;20474;-34
2023/11/06 01:03:15;;;;;;;3.90;0.90;;;10.30;99.90;;;;;;5040887;28;20469;-36
2023/11/06 01:05:42;;;;;;;4.07;1.05;;;10.30;99.90;;;;;;5052278;28;20079;-40
2023/11/06 01:08:07;;;;;;;4.63;1.42;;;10.30;99.90;;;;;;5044179;28;20060;-36
2023/11/06 01:10:36;;;;;;;2.22;1.30;;;10.30;99.90;;;;;;5052313;28;20064;-36
2023/11/06 01:13:03;;;;;;;5.07;1.02;;;10.40;99.90;;;;;;5051950;28;20057;-37
2023/11/06 01:15:35;;;;;;;8.35;1.25;;;10.40;99.90;;;;;;5054143;28;20385;-36
2023/11/06 01:18:02;;;;;;;2.60;0.80;;;10.30;99.90;;;;;;5037642;28;20035;-35
2023/11/06 01:20:27;;;;;;;2.67;1.40;;;10.30;99.90;;;;;;5054719;28;20032;-34
2023/11/06 01:22:53;;;;;;;0.82;0.70;;;10.30;99.90;;;;;;5055680;28;20021;-36
2023/11/06 01:25:22;;;;;;;5.80;1.23;;;10.30;99.90;;;;;;5055789;28;20025;-36
2023/11/06 01:27:47;;;;;;;4.35;1.00;;;10.30;99.90;;;;;;5055932;28;20037;-36
2023/11/06 01:30:13;;;;;;;6.47;1.70;;;10.20;99.90;;;;;;5038073;28;20074;-35
2023/11/06 01:32:39;;;;;;;4.15;1.15;;;10.20;99.90;;;;;;5055791;28;20600;-35
2023/11/06 01:35:05;;;;;;;4.93;0.88;;;10.20;99.90;;;;;;5037315;28;20122;-33
2023/11/06 01:37:31;;;;;;;5.18;1.50;;;10.20;99.90;;;;;;5054452;28;20059;-35
2023/11/06 01:40:00;;;;;;;5.55;1.17;;;10.20;99.90;;;;;;5054943;28;20028;-34
2023/11/06 01:42:26;;;;;;;1.55;1.00;;;10.20;99.90;;;;;;5046978;28;20032;-35
2023/11/06 01:44:52;;;;;;;8.88;1.23;;;10.10;99.90;;;;;;5035595;28;20084;-35
2023/11/06 01:47:18;;;;;;;2.30;0.95;;;10.20;99.90;;;;;;5053423;28;20036;-35
2023/11/06 01:49:44;;;;;;;4.15;1.75;;;10.10;99.90;;;;;;5054796;28;20029;-35
2023/11/06 01:52:15;;;;;;;2.97;1.40;;;10.10;99.90;;;;;;5055445;28;20354;-35
2023/11/06 01:54:41;;;;;;;9.80;1.55;;;10.10;99.90;;;;;;5042721;28;20040;-36
2023/11/06 01:57:08;;;;;;;6.57;1.45;;;10.10;99.90;;;;;;5048263;28;20052;-35
2023/11/06 01:59:34;;;;;;;5.22;2.53;;;10.20;99.90;;;;;;5033835;28;20017;-35
2023/11/06 02:02:05;;;;;;;2.75;1.40;;;10.10;99.90;;;;;;5027551;28;20051;-35
2023/11/06 02:04:34;;;;;;;4.05;1.45;;;10.10;99.90;;;;;;5053839;28;20032;-35
2023/11/06 02:07:00;;;;;;;5.50;1.52;;;10.00;99.90;;;;;;5053853;28;20039;-35
2023/11/06 02:09:28;;;;;;;9.48;1.45;;;10.00;99.90;;;;;;5054478;28;20032;-36
2023/11/06 02:11:58;;;;;;;3.53;1.25;;;10.00;99.90;;;;;;5052886;28;20025;-35
2023/11/06 02:14:29;;;;;;;3.05;1.27;;;10.00;99.90;;;;;;5054978;28;20112;-35
2023/11/06 02:16:55;;;;;;;1.88;1.17;;;10.10;99.90;;;;;;5054556;28;20052;-36
2023/11/06 02:19:21;;;;;;;1.67;1.17;;;10.10;99.90;;;;;;5054261;28;20366;-36
2023/11/06 02:21:52;;;;;;;5.07;1.30;;;10.10;99.90;;;;;;5053906;28;20048;-37
2023/11/06 02:24:18;;;;;;;2.90;1.05;;;10.10;99.90;;;;;;5055144;28;20500;-37
2023/11/06 02:26:55;;;;;;;3.67;1.67;;;10.10;99.90;;;;;;5054546;28;20025;-37
2023/11/06 02:29:21;;;;;;;5.80;1.30;;;10.10;99.90;;;;;;5042860;28;20393;-36
2023/11/06 02:31:47;;;;;;;2.85;1.60;;;10.20;99.90;;;;;;5054898;28;20488;-36
2023/11/06 02:34:12;;;;;;;2.70;1.48;;;10.20;99.90;;;;;;5053618;28;20029;-36
2023/11/06 02:36:40;;;;;;;2.15;1.95;;;10.20;99.90;;;;;;5053527;28;20055;-35
2023/11/06 02:39:06;;;;;;;3.53;2.03;;;10.10;99.90;;;;;;5037958;28;20017;-36
2023/11/06 02:41:32;;;;;;;5.80;2.38;;;10.10;99.90;;;;;;5053733;28;20365;-36
2023/11/06 02:43:57;;;;;;;2.08;1.85;;;10.10;99.90;;;;;;5034401;28;20520;-36
2023/11/06 02:46:23;;;;;;;5.18;2.78;;;10.10;99.90;;;;;;5035033;28;20025;-36
2023/11/06 02:48:48;;;;;;;2.95;1.40;;;10.10;99.90;;;;;;5052487;28;20033;-36
2023/11/06 02:51:17;;;;;;;5.07;1.52;;;10.10;99.90;;;;;;5054269;28;20376;-37
2023/11/06 02:53:42;;;;;;;5.60;1.63;;;10.10;99.90;;;;;;5054236;28;20037;-36
2023/11/06 02:56:08;;;;;;;6.88;1.88;;;10.10;99.90;;;;;;5036140;28;20523;-36
2023/11/06 02:58:34;;;;;;;6.60;1.88;;;10.10;99.90;;;;;;5046786;28;20021;-36
2023/11/06 03:00:59;;;;;;;2.15;1.58;;;10.10;99.90;;;;;;5053648;28;20054;-36
2023/11/06 03:03:25;;;;;;;7.63;1.95;;;10.10;99.90;;;;;;5052759;28;20025;-36
2023/11/06 03:05:50;;;;;;;2.67;1.65;;;10.10;99.90;;;;;;5053913;28;20104;-38
2023/11/06 03:08:16;;;;;;;7.82;1.90;;;10.10;99.90;;;;;;5053892;28;20437;-35
2023/11/06 03:10:42;;;;;;;3.33;1.38;;;10.10;99.90;;;;;;5052852;28;20037;-36
2023/11/06 03:13:11;;;;;;;2.22;1.35;;;10.10;99.90;;;;;;5053451;28;20182;-36
2023/11/06 03:15:37;;;;;;;1.45;1.10;;;10.10;99.90;;;;;;5052802;28;20039;-36
2023/11/06 03:18:03;;;;;;;4.47;1.15;;;10.10;99.90;;;;;;5053211;28;20528;-38
2023/11/06 03:20:29;;;;;;;6.10;1.35;;;10.10;99.90;;;;;;5052494;28;20025;-37
2023/11/06 03:22:57;;;;;;;4.90;1.55;;;10.10;99.90;;;;;;5053168;28;20032;-36
2023/11/06 03:25:22;;;;;;;4.40;1.45;;;10.10;99.90;;;;;;5053910;28;20043;-36
2023/11/06 03:27:48;;;;;;;9.30;1.25;;;10.10;99.90;;;;;;5053686;28;20029;-36
2023/11/06 03:30:14;;;;;;;5.10;1.15;;;10.10;99.90;;;;;;5053668;28;20027;-35
2023/11/06 03:32:40;;;;;;;4.47;1.15;;;10.10;99.90;;;;;;5052697;28;20067;-37
2023/11/06 03:35:06;;;;;;;7.93;1.50;;;10.10;99.90;;;;;;5052646;28;20124;-38
2023/11/06 03:37:32;;;;;;;5.70;1.40;;;10.10;99.90;;;;;;5033519;28;20370;-37
2023/11/06 03:39:58;;;;;;;2.00;1.08;;;10.10;99.90;;;;;;5018084;28;20037;-37
2023/11/06 03:42:24;;;;;;;5.45;1.20;;;10.10;99.90;;;;;;5045843;28;20029;-36
2023/11/06 03:44:49;;;;;;;5.47;1.20;;;10.10;99.90;;;;;;5044845;28;20094;-35
2023/11/06 03:47:15;;;;;;;4.90;1.45;;;10.00;99.90;;;;;;5052771;28;20033;-36
2023/11/06 03:49:41;;;;;;;6.47;1.40;;;9.90;99.90;;;;;;5051468;28;20077;-37
2023/11/06 03:52:11;;;;;;;2.80;0.85;;;9.90;99.90;;;;;;5052390;28;20031;-53
2023/11/06 03:54:38;;;;;;;5.20;1.17;;;9.90;99.90;;;;;;5015499;28;20116;-48
2023/11/06 03:57:04;;;;;;;6.15;1.77;;;9.80;99.90;;;;;;5037018;28;20029;-53
2023/11/06 03:59:29;;;;;;;4.28;1.42;;;9.80;99.90;;;;;;5052472;28;20393;-51
2023/11/06 04:01:55;;;;;;;2.28;1.10;;;9.80;99.90;;;;;;5052282;28;20021;-53
2023/11/06 04:04:20;;;;;;;3.17;1.15;;;9.80;99.90;;;;;;5052330;28;20036;-52
2023/11/06 04:06:46;;;;;;;2.35;1.00;;;9.80;99.90;;;;;;5053011;28;20393;-51
2023/11/06 04:09:12;;;;;;;7.55;0.90;;;9.80;99.90;;;;;;5052011;28;20029;-47
2023/11/06 04:11:38;;;;;;;3.50;1.75;;;9.70;99.90;;;;;;5052836;28;20028;-50
2023/11/06 04:14:03;;;;;;;9.32;1.15;;;9.70;99.90;;;;;;5052033;28;20535;-50
2023/11/06 04:16:29;;;;;;;0.75;0.60;;;9.70;99.90;;;;;;5052509;28;20021;-50
2023/11/06 04:18:55;;;;;;;4.60;1.10;;;9.70;99.90;;;;;;5052420;28;20032;-52
2023/11/06 04:21:26;;;;;;;10.02;1.10;;;9.70;99.90;;;;;;5052568;28;20028;-53
2023/11/06 04:23:52;;;;;;;4.53;1.00;;;9.70;99.90;;;;;;5052481;28;20495;-54
2023/11/06 04:26:18;;;;;;;2.38;1.38;;;9.70;99.90;;;;;;5051619;28;20029;-53
2023/11/06 04:28:43;;;;;;;10.60;1.75;;;9.70;99.90;;;;;;5052606;28;20427;-52
2023/11/06 04:31:09;;;;;;;0.82;0.50;;;9.70;99.90;;;;;;5052281;28;20029;-52
2023/11/06 04:33:37;;;;;;;3.00;1.00;;;9.70;99.90;;;;;;5031322;28;20037;-54
2023/11/06 04:36:04;;;;;;;2.70;0.90;;;9.70;99.90;;;;;;5032611;28;20032;-54
2023/11/06 04:38:29;;;;;;;2.30;0.75;;;9.70;99.90;;;;;;5048440;28;20508;-53
2023/11/06 04:40:56;;;;;;;2.95;0.88;;;9.70;99.90;;;;;;5052605;28;20022;-36
2023/11/06 04:43:22;;;;;;;9.43;1.00;;;9.70;99.90;;;;;;5050620;28;20393;-36
2023/11/06 04:45:48;;;;;;;2.83;0.82;;;9.70;99.90;;;;;;5032721;28;20050;-36
2023/11/06 04:48:13;;;;;;;7.68;0.77;;;9.60;99.90;;;;;;5049310;28;20032;-37
2023/11/06 04:50:39;;;;;;;5.45;0.95;;;9.60;99.90;;;;;;5038489;28;20440;-35
2023/11/06 04:53:05;;;;;;;4.72;0.60;;;9.60;99.90;;;;;;5056509;28;20143;-37
2023/11/06 04:55:31;;;;;;;8.20;1.35;;;9.60;99.90;;;;;;5056514;28;20025;-36
2023/11/06 04:57:56;;;;;;;1.88;0.43;;;9.60;99.90;;;;;;5038099;28;20025;-36
2023/11/06 05:00:22;;;;;;;6.47;1.40;;;9.60;99.90;;;;;;5054188;28;20056;-53
2023/11/06 05:02:48;;;;;;;3.25;0.82;;;9.60;99.90;;;;;;5036438;28;20028;-54
2023/11/06 05:05:16;;;;;;;2.38;0.40;;;9.60;99.90;;;;;;5041429;28;20021;-54
2023/11/06 05:07:42;;;;;;;0.45;0.45;;;9.50;99.90;;;;;;5055785;28;20044;-53
2023/11/06 05:10:08;;;;;;;2.63;0.90;;;9.60;99.90;;;;;;5056247;28;20029;-54
2023/11/06 05:12:37;;;;;;;3.25;0.80;;;9.60;99.90;;;;;;5056386;28;20032;-53
2023/11/06 05:15:03;;;;;;;3.55;0.60;;;9.50;99.90;;;;;;5038299;28;20056;-53
2023/11/06 05:17:29;;;;;;;4.78;0.55;;;9.60;99.90;;;;;;5054068;28;20032;-53
2023/11/06 05:19:55;;;;;;;1.10;0.60;;;9.50;99.90;;;;;;5055874;28;20385;-52
2023/11/06 05:22:23;;;;;;;1.45;0.55;;;9.50;99.90;;;;;;5055881;28;20028;-53
2023/11/06 05:24:49;;;;;;;3.45;0.60;;;9.50;99.90;;;;;;5055940;28;20021;-53
2023/11/06 05:27:14;;;;;;;5.25;0.93;;;9.60;99.90;;;;;;5055957;28;20481;-51
2023/11/06 05:29:40;;;;;;;5.20;1.10;;;9.50;99.90;;;;;;5054874;28;20424;-54
2023/11/06 05:32:06;;;;;;;3.85;0.70;;;9.50;99.90;;;;;;5055327;28;20029;-53
2023/11/06 05:34:34;;;;;;;4.82;1.02;;;9.50;99.90;;;;;;5052543;28;20037;-54
2023/11/06 05:37:00;;;;;;;3.42;0.43;;;9.50;99.90;;;;;;5053930;28;20025;-53
2023/11/06 05:39:26;;;;;;;1.88;0.57;;;9.50;99.90;;;;;;5054896;28;20382;-53
2023/11/06 05:41:52;;;;;;;7.57;1.27;;;9.50;99.90;;;;;;5054158;28;20440;-53
2023/11/06 05:44:20;;;;;;;1.80;0.52;;;9.50;99.90;;;;;;5055129;28;20037;-54
2023/11/06 05:46:48;;;;;;;4.82;0.90;;;9.50;99.90;;;;;;5055232;28;20039;-53
2023/11/06 05:49:14;;;;;;;7.38;0.95;;;9.50;99.90;;;;;;5055544;28;20025;-36
2023/11/06 05:51:41;;;;;;;5.93;0.50;;;9.50;99.90;;;;;;5054227;28;20047;-39
2023/11/06 05:54:07;;;;;;;3.35;0.57;;;9.50;99.90;;;;;;5055339;28;20477;-37
2023/11/06 05:56:33;;;;;;;3.97;1.00;;;9.60;99.90;;;;;;5054031;28;20189;-38
2023/11/06 05:58:59;;;;;;;4.45;0.47;;;9.60;99.90;;;;;;5055222;28;20048;-37
2023/11/06 06:01:24;;;;;;;11.20;0.75;;;9.60;99.90;;;;;;5054202;28;20021;-36
2023/11/06 06:03:50;;;;;;;3.85;0.95;;;9.60;99.90;;;;;;5054800;28;20130;-37
2023/11/06 06:06:16;;;;;;;3.25;0.90;;;9.60;99.90;;;;;;5055475;28;20028;-53
2023/11/06 06:08:43;;;;;;;6.35;1.15;;;9.60;99.90;;;;;;5054937;28;20473;-54
2023/11/06 06:11:08;;;;;;;7.30;0.90;;;9.60;99.90;;;;;;5053892;28;20028;-54
2023/11/06 06:13:34;;;;;;;3.30;1.05;;;9.60;99.90;;;;;;5035668;28;20033;-54
2023/11/06 06:16:02;;;;;;;6.40;1.15;;;9.60;99.90;;;;;;5049709;28;20505;-49
2023/11/06 06:18:28;;;;;;;6.07;1.20;;;9.70;99.90;;;;;;5044368;28;20037;-54
2023/11/06 06:20:54;;;;;;;3.03;1.10;;;9.70;99.90;;;;;;5048641;28;20496;-55
2023/11/06 06:23:22;;;;;;;5.00;1.05;;;9.60;99.90;;;;;;5054913;28;20370;-53
2023/11/06 06:25:48;;;;;;;4.90;1.83;;;9.60;99.90;;;;;;5053314;28;20013;-52
2023/11/06 06:28:14;;;;;;;9.25;1.70;;;9.60;99.90;;;;;;5052270;28;20039;-54
2023/11/06 06:30:42;;;;;;;4.82;1.35;;;9.60;99.90;;;;;;5048573;28;20446;-54
2023/11/06 06:33:08;;;;;;;10.70;1.63;;;9.60;99.90;;;;;;5047967;28;20095;-53
2023/11/06 06:35:34;;;;;;;3.90;1.30;;;9.60;99.90;;;;;;5047681;28;20021;-50
2023/11/06 06:37:59;;;;;;;5.78;1.10;;;9.60;99.90;;;;;;5050492;28;20032;-54
2023/11/06 06:40:26;;;;;;;5.45;1.33;;;9.60;99.90;;;;;;5041848;28;20091;-52
2023/11/06 06:42:51;;;;;;;11.10;2.03;;;9.60;99.90;;;;;;5041303;28;21486;-54
2023/11/06 06:45:17;;;;;;;6.05;1.55;;;9.60;99.90;;;;;;5026445;28;20037;-55
2023/11/06 06:47:43;;;;;;;7.53;1.42;;;9.60;99.90;;;;;;5042792;28;20028;-51
2023/11/06 06:50:09;;;;;;;8.10;1.02;;;9.70;99.90;;;;;;5046422;28;20060;-54
2023/11/06 06:52:35;;;;;;;6.53;1.60;;;9.70;99.90;;;;;;5026288;28;20060;-54
2023/11/06 06:55:01;;;;;;;6.85;1.52;;;9.70;99.90;;;;;;5041853;28;20057;-48
2023/11/06 06:57:27;;;;;;;5.78;1.23;;;9.60;99.90;;;;;;5045635;28;20022;-50
2023/11/06 06:59:52;;;;;;;5.65;1.40;;;9.60;99.90;;;;;;5043855;28;20060;-48
2023/11/06 07:02:20;;;;;;;2.50;1.00;;;9.60;99.90;;;;;;5044906;28;20028;-54
2023/11/06 07:04:46;;;;;;;7.32;1.77;;;9.70;99.90;;;;;;5044496;28;20044;-54
2023/11/06 07:07:12;;;;;;;7.65;1.98;;;9.70;99.90;;;;;;5044587;28;20475;-50
2023/11/06 07:09:38;;;;;;;7.97;1.23;;;9.70;99.90;;;;;;5043335;28;20025;-52
2023/11/06 07:12:04;;;;;;;4.15;1.63;;;9.70;99.90;;;;;;5042325;28;20032;-54
2023/11/06 07:14:31;;;;;;;5.13;1.17;;;9.70;99.90;;;;;;5043427;28;20458;-50
2023/11/06 07:17:05;;;;;;;8.40;1.63;;;9.70;99.90;;;;;;5043942;28;20021;-54
2023/11/06 07:19:31;;;;;;;5.15;1.15;;;9.70;99.90;;;;;;5045733;28;20025;-53
2023/11/06 07:21:57;;;;;;;6.63;1.25;;;9.70;99.90;;;;;;5032293;28;20032;-54
2023/11/06 07:24:26;;;;;;;3.88;2.08;;;9.70;99.90;;;;;;5042218;28;20084;-54
2023/11/06 07:26:52;;;;;;;16.08;1.63;;;9.80;99.90;;;;;;5052517;28;20154;-55
2023/11/06 07:29:18;;;;;;;1.85;1.23;;;9.80;99.90;;;;;;5048292;28;20133;-53
2023/11/06 07:31:44;;;;;;;9.25;1.73;;;9.80;99.90;;;;;;5052963;28;20111;-54
2023/11/06 07:34:18;;;;;;;3.78;1.17;;;9.90;99.90;;;;;;5079685;27;20399;-53
2023/11/06 07:36:44;;;;;;;5.60;1.13;;;9.90;99.90;;;;;;5069648;28;20032;-49
2023/11/06 07:39:10;;;;;;;3.15;1.25;;;9.90;99.90;;;;;;5069863;28;20500;-53
2023/11/06 07:41:35;;;;;;;5.47;1.02;;;9.90;99.90;;;;;;5070073;28;20115;-53
2023/11/06 07:44:01;;;;;;;3.08;0.90;;;9.90;99.90;;;;;;5069867;28;20393;-49
2023/11/06 07:46:27;;;;;;;9.85;1.00;;;9.90;99.90;;;;;;5069786;28;20060;-56
2023/11/06 07:48:53;;;;;;;5.95;1.15;;;10.00;99.90;;;;;;5069806;28;20025;-50
2023/11/06 07:51:19;;;;;;;3.60;1.83;;;10.00;99.90;;;;;;5061236;28;20056;-50
2023/11/06 07:53:44;;;;;;;4.03;1.10;;;10.10;99.90;;;;;;5048532;28;20049;-53
2023/11/06 07:56:10;;;;;;;6.90;1.02;;;10.00;99.90;;;;;;5049956;28;20021;-53
2023/11/06 07:58:36;;;;;;;6.20;1.17;;;10.10;99.90;;;;;;5057867;28;20049;-54
2023/11/06 08:01:02;;;;;;;1.48;0.70;;;10.10;99.90;;;;;;5067253;28;20059;-53
2023/11/06 08:03:30;;;;;;;3.15;0.80;;;10.10;99.90;;;;;;5057189;28;20029;-51
2023/11/06 08:05:55;;;;;;;6.07;1.33;;;10.10;99.90;;;;;;5069807;28;20496;-51
2023/11/06 08:08:21;;;;;;;5.70;0.85;;;10.20;99.90;;;;;;5057978;28;20029;-53
2023/11/06 08:10:48;;;;;;;4.18;0.98;;;10.20;99.90;;;;;;5049659;28;20029;-52
2023/11/06 08:13:14;;;;;;;10.98;1.45;;;10.20;99.90;;;;;;5049185;28;20033;-53
2023/11/06 08:15:42;;;;;;;5.18;1.30;;;10.30;99.90;;;;;;5049598;28;20363;-53
2023/11/06 08:18:10;;;;;;;7.88;0.90;;;10.30;99.90;;;;;;5063831;28;20547;-54
2023/11/06 08:20:36;;;;;;;5.70;0.88;;;10.40;99.90;;;;;;5049264;28;20428;-54
2023/11/06 08:23:02;;;;;;;6.25;1.15;;;10.40;99.90;;;;;;5050260;28;20489;-44
2023/11/06 08:25:28;;;;;;;10.13;1.05;;;10.50;99.90;;;;;;5045426;28;20036;-55
2023/11/06 08:27:54;;;;;;;2.78;1.35;;;10.50;99.90;;;;;;5049019;28;20108;-67
2023/11/06 08:30:20;;;;;;;10.07;1.33;;;10.60;99.90;;;;;;5049258;28;20039;-54
2023/11/06 08:32:45;;;;;;;1.95;0.60;;;10.60;99.90;;;;;;5048868;28;20401;-52
2023/11/06 08:35:11;;;;;;;3.53;0.82;;;10.70;99.90;;;;;;5056764;28;20030;-51
2023/11/06 08:37:38;;;;;;;1.58;0.80;;;10.70;99.90;;;;;;5067170;28;20021;-53
2023/11/06 08:40:05;;;;;;;2.78;0.80;;;10.70;99.90;;;;;;5068544;28;20064;-52
2023/11/06 08:42:31;;;;;;;4.23;0.80;;;10.80;99.90;;;;;;5052610;28;20489;-52
2023/11/06 08:44:57;;;;;;;4.45;0.70;;;10.90;99.90;;;;;;5047413;28;20663;-54
2023/11/06 08:47:23;;;;;;;3.30;1.00;;;10.90;99.90;;;;;;5052298;28;20021;-51
2023/11/06 08:49:52;;;;;;;6.35;0.90;;;10.90;99.90;;;;;;5055440;28;20556;-51
2023/11/06 08:52:21;;;;;;;10.05;1.90;;;11.00;99.90;;;;;;5053718;28;20033;-50
2023/11/06 08:54:47;;;;;;;7.35;0.60;;;11.00;99.90;;;;;;5054879;28;20600;-50
2023/11/06 08:57:13;;;;;;;7.50;1.42;;;11.10;99.90;;;;;;5040804;28;20104;-37
2023/11/06 08:59:40;;;;;;;9.75;1.33;;;11.10;99.90;;;;;;5033746;28;20437;-37
2023/11/06 09:02:09;;;;;;;5.13;1.52;;;11.10;99.90;;;;;;5032634;28;20044;-37
2023/11/06 09:04:40;;;;;;;9.25;1.73;;;11.10;99.90;;;;;;5025788;28;20040;-37
2023/11/06 09:07:06;;;;;;;5.70;1.73;;;11.10;99.90;;;;;;5032718;28;20063;-38
2023/11/06 09:09:33;;;;;;;7.88;1.67;;;11.20;99.90;;;;;;5032709;28;20029;-37
2023/11/06 09:11:59;;;;;;;10.15;1.95;;;11.30;99.90;;;;;;5032208;28;20104;-37
2023/11/06 09:14:24;;;;;;;1.65;1.20;;;11.40;99.90;;;;;;5045824;28;20108;-37
2023/11/06 09:16:50;;;;;;;9.35;1.38;;;11.40;99.90;;;;;;5034777;28;20025;-37
2023/11/06 09:19:17;;;;;;;13.27;1.83;;;11.40;99.90;;;;;;5035226;28;20110;-36
2023/11/06 09:21:43;;;;;;;14.10;2.00;;;11.30;99.90;;;;;;5038100;28;20068;-36
2023/11/06 09:24:09;;;;;;;14.30;2.38;;;11.30;99.90;;;;;;5055086;28;20025;-35
2023/11/06 09:26:35;;;;;;;7.25;1.88;;;11.30;99.90;;;;;;5054792;28;20170;-36
2023/11/06 09:29:01;;;;;;;9.65;1.77;;;11.30;99.90;;;;;;5037111;28;20061;-36
2023/11/06 09:31:27;;;;;;;12.40;2.55;;;11.40;99.90;;;;;;5045775;28;20481;-37
2023/11/06 09:33:54;;;;;;;10.15;1.73;;;11.40;99.90;;;;;;5039058;28;20516;-38
2023/11/06 09:36:20;;;;;;;11.80;1.63;;;11.40;99.90;;;;;;5035025;28;20042;-39
2023/11/06 09:38:46;;;;;;;7.35;1.60;;;11.40;99.90;;;;;;5034823;28;20050;-36
2023/11/06 09:41:12;;;;;;;8.25;1.58;;;11.30;99.90;;;;;;5035064;28;20474;-36
2023/11/06 09:43:40;;;;;;;9.13;1.80;;;11.40;99.90;;;;;;5034519;28;20080;-40
2023/11/06 09:46:10;;;;;;;16.27;1.55;;;11.40;99.90;;;;;;5036135;28;20032;-38
2023/11/06 09:48:37;;;;;;;7.78;1.67;;;11.40;99.90;;;;;;5052498;28;20036;-39
2023/11/06 09:51:10;;;;;;;7.57;1.05;;;11.40;99.90;;;;;;5038002;28;20111;-37
2023/11/06 09:53:41;;;;;;;3.75;0.60;;;11.50;99.90;;;;;;5033423;28;20099;-39
2023/11/06 09:56:13;;;;;;;4.70;1.13;;;11.60;99.90;;;;;;5034125;28;20490;-39
2023/11/06 09:58:39;;;;;;;5.40;1.65;;;11.60;99.90;;;;;;5034555;28;20093;-39
2023/11/06 10:01:08;;;;;;;6.32;1.00;;;11.70;99.90;;;;;;5034299;28;20029;-38
2023/11/06 10:03:38;;;;;;;1.83;0.80;;;11.80;99.90;;;;;;5033949;28;20030;-36
2023/11/06 10:06:05;;;;;;;5.30;1.27;;;11.80;99.90;;;;;;5035339;28;21816;-37
2023/11/06 10:08:33;;;;;;;0.98;0.68;;;12.00;99.90;;;;;;5036883;28;20021;-58
2023/11/06 10:11:02;;;;;;;5.50;0.85;;;12.00;99.90;;;;;;5048890;28;20036;-39
2023/11/06 10:13:28;;;;;;;6.20;1.15;;;12.00;99.90;;;;;;5033916;28;20033;-38
2023/11/06 10:15:55;;;;;;;3.00;0.95;;;12.00;99.90;;;;;;5033927;28;20035;-38
2023/11/06 10:18:23;;;;;;;8.93;1.33;;;12.00;99.90;;;;;;5034498;28;20036;-38
2023/11/06 10:20:51;;;;;;;2.80;0.65;;;12.00;99.90;;;;;;5033928;28;20545;-38
2023/11/06 10:23:24;;;;;;;;;;;12.10;99.90;;;;;;5034424;28;20481;-40
2023/11/06 10:25:51;;;;;;;10.13;1.65;;;12.10;99.90;;;;;;5060039;28;19951;-42
2023/11/06 10:28:18;;;;;;;6.68;1.33;;;12.10;99.90;;;;;;5048257;28;20029;-40
2023/11/06 10:30:47;;;;;;;5.82;0.98;;;12.10;99.90;;;;;;5032634;28;20025;-38
2023/11/06 10:33:15;;;;;;;5.85;1.23;;;12.10;99.90;;;;;;5033335;28;20048;-36
2023/11/06 10:35:40;;;;;;;1.43;0.60;;;12.00;99.90;;;;;;5033080;28;20033;-41
2023/11/06 10:38:06;;;;;;;2.67;0.50;;;12.10;99.90;;;;;;5038761;28;20032;-38
2023/11/06 10:40:33;;;;;;;3.08;1.05;;;12.10;99.90;;;;;;5050354;28;20053;-41
2023/11/06 10:43:03;;;;;;;10.38;1.15;;;12.00;99.90;;;;;;5050184;28;20021;-36
2023/11/06 10:45:34;;;;;;;7.43;1.42;;;11.90;99.90;;;;;;5044779;28;20030;-36
2023/11/06 10:48:12;;;;;;;8.13;1.50;;;11.90;99.90;;;;;;5037538;28;20057;-37
2023/11/06 10:50:38;;;;;;;8.45;2.47;;;11.80;99.90;;;;;;5037163;28;20021;-40
2023/11/06 10:53:06;;;;;;;3.63;1.27;;;11.90;99.90;;;;;;5045504;28;20021;-36
2023/11/06 10:55:36;;;;;;;3.60;0.57;;;12.00;99.90;;;;;;5032811;28;20021;-40
2023/11/06 10:58:08;;;;;;;7.03;1.10;;;12.10;99.90;;;;;;5032791;28;20482;-36
2023/11/06 11:00:34;;;;;;;9.38;0.93;;;12.10;99.90;;;;;;5029913;28;20414;-37
2023/11/06 11:03:01;;;;;;;6.22;1.45;;;12.10;99.90;;;;;;5034937;28;20485;-39
2023/11/06 11:05:30;;;;;;;11.65;1.05;;;12.10;99.90;;;;;;5033086;28;20301;-37
2023/11/06 11:07:57;;;;;;;2.33;0.75;;;12.10;99.90;;;;;;5045133;28;20146;-39
2023/11/06 11:10:27;;;;;;;5.10;1.10;;;12.10;99.90;;;;;;5040258;28;20359;-58
2023/11/06 11:12:55;;;;;;;5.47;0.82;;;12.20;99.90;;;;;;5033161;28;20029;-39
2023/11/06 11:15:26;;;;;;;3.78;0.73;;;12.30;99.90;;;;;;5044163;28;20501;-37
2023/11/06 11:18:04;;;;;;;6.93;1.20;;;12.40;99.90;;;;;;5050149;28;20029;-36
2023/11/06 11:21:04;;;;;;;2.92;0.90;;;12.50;99.90;;;;;;5029764;28;20029;-37
2023/11/06 11:23:37;;;;;;;4.00;0.93;;;12.50;99.90;;;;;;5002533;28;20040;-37
2023/11/06 11:26:04;;;;;;;5.93;1.17;;;12.50;99.90;;;;;;5026438;28;20025;-40
2023/11/06 11:28:51;;;;;;;5.97;1.20;;;12.50;99.90;;;;;;5028587;28;20466;-49
2023/11/06 11:31:49;;;;;;;2.40;0.90;;;12.40;99.90;;;;;;5030740;28;20543;-38
2023/11/06 11:34:30;;;;;;;5.32;1.25;;;12.40;99.90;;;;;;5031089;28;20052;-36
2023/11/06 11:36:57;;;;;;;7.10;2.20;;;12.50;99.90;;;;;;5031577;28;20385;-39
2023/11/06 11:39:23;;;;;;;9.05;1.25;;;12.40;99.90;;;;;;5032575;28;20486;-37
2023/11/06 11:42:03;;;;;;;3.58;1.70;;;12.50;99.90;;;;;;5032166;28;20026;-40
2023/11/06 11:44:30;;;;;;;6.93;0.68;;;12.60;99.90;;;;;;5014529;28;20034;-37
2023/11/06 11:47:03;;;;;;;7.13;0.88;;;12.60;99.90;;;;;;5032430;28;20025;-37
2023/11/06 11:49:46;;;;;;;7.47;0.68;;;12.60;99.90;;;;;;5030858;28;20521;-38
2023/11/06 11:52:23;;;;;;;8.57;0.88;;;12.60;99.90;;;;;;5032681;28;20028;-38
2023/11/06 11:54:50;;;;;;;4.57;0.82;;;12.50;99.90;;;;;;5030202;28;20021;-37
2023/11/06 11:57:16;;;;;;;12.82;2.05;;;12.40;99.90;;;;;;5031987;28;20026;-38
2023/11/06 11:59:50;;;;;;;7.13;1.50;;;12.40;99.90;;;;;;5039545;28;20029;-39
2023/11/06 12:02:31;;;;;;;2.53;1.02;;;12.40;99.90;;;;;;5032385;28;20086;-40
2023/11/06 12:05:12;;;;;;;6.70;1.05;;;12.30;99.90;;;;;;5031687;28;20029;-37
2023/11/06 12:07:44;;;;;;;5.97;0.90;;;12.30;99.90;;;;;;5032456;28;20064;-38
2023/11/06 12:10:10;;;;;;;4.20;1.10;;;12.30;99.90;;;;;;5033313;28;20541;-40
2023/11/06 12:12:37;;;;;;;7.72;1.73;;;12.20;99.90;;;;;;5030546;28;20502;-39
2023/11/06 12:15:09;;;;;;;4.70;1.13;;;12.20;99.90;;;;;;5037460;28;20539;-37
2023/11/06 12:17:36;;;;;;;4.85;1.00;;;12.10;99.90;;;;;;5048726;28;20040;-39
2023/11/06 12:20:10;;;;;;;15.15;1.08;;;12.10;99.90;;;;;;5049825;28;20021;-48
2023/11/06 12:22:46;;;;;;;8.98;1.50;;;12.10;99.90;;;;;;5041401;28;20065;-37
2023/11/06 12:25:12;;;;;;;10.52;1.35;;;12.20;99.90;;;;;;5036434;28;20018;-51
2023/11/06 12:27:37;;;;;;;1.15;0.80;;;12.20;99.90;;;;;;5031902;28;20362;-42
2023/11/06 12:30:07;;;;;;;5.68;1.00;;;12.30;99.90;;;;;;5035396;28;20026;-39
2023/11/06 12:32:37;;;;;;;9.27;1.30;;;12.10;99.90;;;;;;5048687;28;20046;-37
2023/11/06 12:35:07;;;;;;;4.63;0.80;;;12.10;99.90;;;;;;5059874;28;20025;-36
2023/11/06 12:38:00;;;;;;;1.80;1.10;;;12.10;99.90;;;;;;5052612;28;20035;-38
2023/11/06 12:40:27;;;;;;;2.55;0.90;;;12.10;99.90;;;;;;5043811;28;20021;-38
2023/11/06 12:42:55;;;;;;;3.53;0.93;;;12.10;99.90;;;;;;5036318;28;20025;-37
2023/11/06 12:45:38;;;;;;;4.20;0.90;;;12.10;99.90;;;;;;5035640;28;20481;-40
2023/11/06 12:48:34;;;;;;;8.35;0.88;;;12.10;99.90;;;;;;5035143;28;20036;-39
2023/11/06 12:51:06;;;;;;;4.25;1.15;;;12.10;99.90;;;;;;5035075;28;20553;-62
2023/11/06 12:53:32;;;;;;;1.70;0.75;;;12.20;99.90;;;;;;5016761;28;20483;-38